createdAt,value
2023-03-29T00:01:34.915Z,29.65
2023-03-29T00:04:04.553Z,26.85
2023-03-29T00:06:33.191Z,26.60
2023-03-29T00:09:00.499Z,28.17
2023-03-29T00:11:27.447Z,27.60
2023-03-29T00:13:54.606Z,27.45
2023-03-29T00:16:21.407Z,27.00
2023-03-29T00:18:48.510Z,27.23
2023-03-29T00:21:15.282Z,25.55
2023-03-29T00:23:42.446Z,28.33
2023-03-29T00:26:09.406Z,29.00
2023-03-29T00:28:36.459Z,27.17
2023-03-29T00:31:07.473Z,28.10
2023-03-29T00:33:34.668Z,27.20
2023-03-29T00:36:02.033Z,26.88
2023-03-29T00:38:29.239Z,27.08
2023-03-29T00:40:56.054Z,27.30
2023-03-29T00:43:23.181Z,26.45
2023-03-29T00:45:50.004Z,25.63
2023-03-29T00:48:18.665Z,25.02
2023-03-29T00:50:48.611Z,26.55
2023-03-29T00:53:30.849Z,25.25
2023-03-29T00:56:29.916Z,25.25
2023-03-29T00:59:07.209Z,23.88
2023-03-29T01:01:42.501Z,23.77
2023-03-29T01:04:18.017Z,24.52
2023-03-29T01:06:57.167Z,24.52
2023-03-29T01:09:24.288Z,23.55
2023-03-29T01:11:52.844Z,23.65
2023-03-29T01:14:26.597Z,23.77
2023-03-29T01:16:53.415Z,23.52
2023-03-29T01:19:21.495Z,22.70
2023-03-29T01:22:03.874Z,23.77
2023-03-29T01:24:37.999Z,23.15
2023-03-29T01:27:22.857Z,23.02
2023-03-29T01:30:00.328Z,23.23
2023-03-29T01:32:31.318Z,22.00
2023-03-29T01:35:10.410Z,22.13
2023-03-29T01:37:42.530Z,21.60
2023-03-29T01:40:10.041Z,21.67
2023-03-29T01:42:41.201Z,21.77
2023-03-29T01:45:16.997Z,21.10
2023-03-29T01:50:32.285Z,22.45
2023-03-29T01:53:09.832Z,24.52
2023-03-29T01:55:39.452Z,22.88
2023-03-29T01:58:07.354Z,25.52
2023-03-29T02:00:34.855Z,23.42
2023-03-29T02:03:05.079Z,25.25
2023-03-29T02:05:32.255Z,23.80
2023-03-29T02:08:00.261Z,23.73
2023-03-29T02:10:27.468Z,22.50
2023-03-29T02:12:54.218Z,22.95
2023-03-29T02:15:21.591Z,23.63
2023-03-29T02:17:49.342Z,24.60
2023-03-29T02:20:22.819Z,23.80
2023-03-29T02:23:12.351Z,24.10
2023-03-29T02:25:39.463Z,23.75
2023-03-29T02:28:06.796Z,24.10
2023-03-29T02:30:55.161Z,24.00
2023-03-29T02:33:27.966Z,24.27
2023-03-29T02:35:59.201Z,22.95
2023-03-29T02:38:26.430Z,22.30
2023-03-29T02:40:55.307Z,22.33
2023-03-29T02:43:23.831Z,23.42
2023-03-29T02:45:52.490Z,23.55
2023-03-29T02:48:22.060Z,23.42
2023-03-29T02:50:51.287Z,20.95
2023-03-29T02:53:20.059Z,22.65
2023-03-29T02:55:47.116Z,21.95
2023-03-29T02:58:15.406Z,22.27
2023-03-29T03:00:45.337Z,21.65
2023-03-29T03:03:12.574Z,20.75
2023-03-29T03:05:39.774Z,20.92
2023-03-29T03:08:07.474Z,21.20
2023-03-29T03:10:35.471Z,19.98
2023-03-29T03:13:02.404Z,21.40
2023-03-29T03:15:31.141Z,21.02
2023-03-29T03:17:58.049Z,20.85
2023-03-29T03:20:26.587Z,21.45
2023-03-29T03:22:53.423Z,20.25
2023-03-29T03:25:22.147Z,20.35
2023-03-29T03:27:49.746Z,20.60
2023-03-29T03:30:17.011Z,19.58
2023-03-29T03:32:44.746Z,19.60
2023-03-29T03:35:12.357Z,18.20
2023-03-29T03:37:39.292Z,18.98
2023-03-29T03:40:12.074Z,19.23
2023-03-29T03:42:41.783Z,19.45
2023-03-29T03:45:09.780Z,17.77
2023-03-29T03:47:39.696Z,18.40
2023-03-29T03:50:07.565Z,18.35
2023-03-29T03:52:34.535Z,17.88
2023-03-29T03:55:03.462Z,18.05
2023-03-29T03:57:30.249Z,18.38
2023-03-29T03:59:57.574Z,18.63
2023-03-29T04:02:24.397Z,18.17
2023-03-29T04:04:51.582Z,18.08
2023-03-29T04:07:18.498Z,17.52
2023-03-29T04:09:45.928Z,17.67
2023-03-29T04:12:12.720Z,16.77
2023-03-29T04:14:40.412Z,16.52
2023-03-29T04:17:07.132Z,16.75
2023-03-29T04:19:34.706Z,17.52
2023-03-29T04:22:01.482Z,18.42
2023-03-29T04:24:28.540Z,16.23
2023-03-29T04:26:55.514Z,17.73
2023-03-29T04:29:22.600Z,17.70
2023-03-29T04:31:49.466Z,16.77
2023-03-29T04:34:16.952Z,16.73
2023-03-29T04:36:44.056Z,16.58
2023-03-29T04:39:11.169Z,16.27
2023-03-29T04:41:37.908Z,15.98
2023-03-29T04:44:05.211Z,18.10
2023-03-29T04:46:32.499Z,17.58
2023-03-29T04:48:59.963Z,18.63
2023-03-29T04:51:27.537Z,17.05
2023-03-29T04:53:54.618Z,18.27
2023-03-29T04:56:23.089Z,19.67
2023-03-29T04:58:50.989Z,20.20
2023-03-29T05:01:18.082Z,20.30
2023-03-29T05:03:45.195Z,18.98
2023-03-29T05:06:12.156Z,20.35
2023-03-29T05:08:39.525Z,22.20
2023-03-29T05:11:10.376Z,19.98
2023-03-29T05:13:37.649Z,22.90
2023-03-29T05:16:04.629Z,22.13
2023-03-29T05:18:31.938Z,24.38
2023-03-29T05:20:59.567Z,27.35
2023-03-29T05:23:27.119Z,27.15
2023-03-29T05:25:54.088Z,29.88
2023-03-29T05:28:21.620Z,29.05
2023-03-29T05:31:04.563Z,27.70
2023-03-29T05:33:31.973Z,28.02
2023-03-29T05:36:10.889Z,29.55
2023-03-29T05:38:38.220Z,29.45
2023-03-29T05:41:06.734Z,28.23
2023-03-29T05:43:33.840Z,29.65
2023-03-29T05:46:00.864Z,30.13
2023-03-29T05:48:28.770Z,26.95
2023-03-29T05:50:56.369Z,28.45
2023-03-29T05:53:24.220Z,27.58
2023-03-29T05:55:51.584Z,29.35
2023-03-29T05:58:19.321Z,30.13
2023-03-29T06:00:46.652Z,29.70
2023-03-29T06:03:21.301Z,28.58
2023-03-29T06:05:49.972Z,29.20
2023-03-29T06:08:17.066Z,28.17
2023-03-29T06:10:43.898Z,26.92
2023-03-29T06:13:11.921Z,24.98
2023-03-29T06:15:38.689Z,25.60
2023-03-29T06:18:06.140Z,25.38
2023-03-29T06:20:33.269Z,24.27
2023-03-29T06:23:00.402Z,22.08
2023-03-29T06:25:27.211Z,24.90
2023-03-29T06:27:54.342Z,24.58
2023-03-29T06:30:21.110Z,22.55
2023-03-29T06:32:50.551Z,21.70
2023-03-29T06:35:17.597Z,22.60
2023-03-29T06:37:50.057Z,21.98
2023-03-29T06:40:19.013Z,20.88
2023-03-29T06:42:47.732Z,21.27
2023-03-29T06:45:14.688Z,20.00
2023-03-29T06:47:42.090Z,19.50
2023-03-29T06:50:09.302Z,21.83
2023-03-29T06:52:36.812Z,18.40
2023-03-29T06:55:07.608Z,17.85
2023-03-29T06:57:34.713Z,17.77
2023-03-29T07:00:01.667Z,18.70
2023-03-29T07:02:29.082Z,18.23
2023-03-29T07:04:56.276Z,16.20
2023-03-29T07:07:27.558Z,17.92
2023-03-29T07:09:55.501Z,17.60
2023-03-29T07:12:23.044Z,14.57
2023-03-29T07:14:49.889Z,16.67
2023-03-29T07:17:16.958Z,14.75
2023-03-29T07:19:43.905Z,15.68
2023-03-29T07:22:11.347Z,15.98
2023-03-29T07:24:38.116Z,14.77
2023-03-29T07:27:05.311Z,13.98
2023-03-29T07:29:32.338Z,13.23
2023-03-29T07:31:59.363Z,13.30
2023-03-29T07:34:27.237Z,14.27
2023-03-29T07:36:54.661Z,13.02
2023-03-29T07:39:22.360Z,14.45
2023-03-29T07:41:49.430Z,12.77
2023-03-29T07:44:19.369Z,12.35
2023-03-29T07:46:46.477Z,12.85
2023-03-29T07:49:13.191Z,11.27
2023-03-29T07:52:12.930Z,11.40
2023-03-29T07:54:39.791Z,12.25
2023-03-29T07:57:06.926Z,11.30
2023-03-29T07:59:36.805Z,10.45
2023-03-29T08:02:03.861Z,10.38
2023-03-29T08:04:31.023Z,11.95
2023-03-29T08:06:58.345Z,11.98
2023-03-29T08:09:25.977Z,12.00
2023-03-29T08:11:53.538Z,11.90
2023-03-29T08:14:29.620Z,10.90
2023-03-29T08:17:04.532Z,12.05
2023-03-29T08:19:32.329Z,11.65
2023-03-29T08:22:27.132Z,9.95
2023-03-29T08:25:00.786Z,10.77
2023-03-29T08:27:35.640Z,10.98
2023-03-29T08:30:14.861Z,11.98
2023-03-29T08:32:42.273Z,11.98
2023-03-29T08:35:09.999Z,10.18
2023-03-29T08:37:38.112Z,10.20
2023-03-29T08:40:05.762Z,10.95
2023-03-29T08:42:51.365Z,10.65
2023-03-29T08:45:24.435Z,10.43
2023-03-29T08:48:04.942Z,8.98
2023-03-29T08:50:58.575Z,9.60
2023-03-29T08:53:33.263Z,11.70
2023-03-29T08:56:00.397Z,11.37
2023-03-29T08:58:29.166Z,11.90
2023-03-29T09:01:00.234Z,10.88
2023-03-29T09:04:09.067Z,9.80
2023-03-29T09:09:58.468Z,9.30
2023-03-29T09:12:56.500Z,8.30
2023-03-29T09:15:31.755Z,8.07
2023-03-29T09:17:58.501Z,9.18
2023-03-29T09:20:44.044Z,6.88
2023-03-29T09:23:19.632Z,7.40
2023-03-29T09:26:04.927Z,9.88
2023-03-29T09:28:39.000Z,15.45
2023-03-29T09:31:07.891Z,23.13
2023-03-29T09:33:45.024Z,26.20
2023-03-29T09:36:54.238Z,19.17
2023-03-29T09:39:21.250Z,19.50
2023-03-29T09:41:57.395Z,33.47
2023-03-29T09:44:31.381Z,29.33
2023-03-29T09:47:28.150Z,28.17
2023-03-29T09:50:01.830Z,28.50
2023-03-29T09:52:37.133Z,25.48
2023-03-29T09:55:30.470Z,24.38
2023-03-29T09:58:01.659Z,24.42
2023-03-29T10:00:28.511Z,22.30
2023-03-29T10:03:28.502Z,21.80
2023-03-29T10:09:02.977Z,18.58
2023-03-29T10:11:34.751Z,19.38
2023-03-29T10:14:16.850Z,18.48
2023-03-29T10:16:47.692Z,14.45
2023-03-29T10:19:46.230Z,15.07
2023-03-29T10:22:23.127Z,14.60
2023-03-29T10:24:51.455Z,14.25
2023-03-29T10:27:27.049Z,12.52
2023-03-29T10:32:27.777Z,13.73
2023-03-29T10:34:54.663Z,11.90
2023-03-29T10:37:31.242Z,12.90
2023-03-29T10:39:58.210Z,13.32
2023-03-29T10:42:25.308Z,11.10
2023-03-29T10:44:57.014Z,11.52
2023-03-29T10:47:24.410Z,11.20
2023-03-29T10:49:57.105Z,10.10
2023-03-29T10:52:24.748Z,9.15
2023-03-29T10:54:52.348Z,10.05
2023-03-29T10:57:33.763Z,9.52
2023-03-29T11:00:11.163Z,10.23
2023-03-29T11:02:58.547Z,10.13
2023-03-29T11:05:28.381Z,9.70
2023-03-29T11:08:23.535Z,8.02
2023-03-29T11:11:08.851Z,8.02
2023-03-29T11:13:48.905Z,8.10
2023-03-29T11:16:30.926Z,8.07
2023-03-29T11:18:58.022Z,8.05
2023-03-29T11:21:31.381Z,7.72
2023-03-29T11:24:27.663Z,6.95
2023-03-29T11:27:16.013Z,7.10
2023-03-29T11:29:58.597Z,6.88
2023-03-29T11:32:37.346Z,6.53
2023-03-29T11:35:19.189Z,7.22
2023-03-29T11:37:55.476Z,6.43
2023-03-29T11:40:44.702Z,6.15
2023-03-29T11:43:27.966Z,5.82
2023-03-29T11:46:07.574Z,5.72
2023-03-29T11:48:36.610Z,5.35
2023-03-29T11:51:06.844Z,5.05
2023-03-29T11:53:42.712Z,5.93
2023-03-29T11:56:50.471Z,5.75
2023-03-29T11:59:55.436Z,5.32
2023-03-29T12:02:53.341Z,4.13
2023-03-29T12:05:21.615Z,5.55
2023-03-29T12:08:06.763Z,6.88
2023-03-29T12:11:23.003Z,6.70
2023-03-29T12:15:17.671Z,6.75
2023-03-29T12:17:55.135Z,5.45
2023-03-29T12:20:33.033Z,6.78
2023-03-29T12:23:00.785Z,7.00
2023-03-29T12:25:45.562Z,6.45
2023-03-29T12:28:34.710Z,6.38
2023-03-29T12:31:24.722Z,6.45
2023-03-29T12:33:51.817Z,6.63
2023-03-29T12:36:36.987Z,6.38
2023-03-29T12:40:43.457Z,5.97
2023-03-29T12:43:39.184Z,7.60
2023-03-29T12:49:12.752Z,5.32
2023-03-29T12:51:43.547Z,5.95
2023-03-29T12:54:37.478Z,5.93
2023-03-29T12:57:28.159Z,6.80
2023-03-29T12:59:55.053Z,5.95
2023-03-29T13:02:22.158Z,6.03
2023-03-29T13:04:51.227Z,6.35
2023-03-29T13:07:24.258Z,6.35
2023-03-29T13:09:54.159Z,7.70
2023-03-29T13:12:23.051Z,6.68
2023-03-29T13:14:57.751Z,6.25
2023-03-29T13:17:27.300Z,6.30
2023-03-29T13:20:18.184Z,6.18
2023-03-29T13:22:52.501Z,7.07
2023-03-29T13:25:55.940Z,8.02
2023-03-29T13:28:29.578Z,6.90
2023-03-29T13:31:00.094Z,7.78
2023-03-29T13:33:49.120Z,6.95
2023-03-29T13:36:21.282Z,6.50
2023-03-29T13:38:49.989Z,7.88
2023-03-29T13:41:38.198Z,5.95
2023-03-29T13:44:16.894Z,5.88
2023-03-29T13:46:44.038Z,6.90
2023-03-29T13:49:24.319Z,6.50
2023-03-29T13:51:54.385Z,7.20
2023-03-29T13:54:38.411Z,6.00
2023-03-29T13:57:13.965Z,5.97
2023-03-29T14:00:12.337Z,6.05
2023-03-29T14:02:56.322Z,6.50
2023-03-29T14:05:26.147Z,6.35
2023-03-29T14:07:53.598Z,6.40
2023-03-29T14:10:39.628Z,5.95
2023-03-29T14:13:06.526Z,5.43
2023-03-29T14:15:49.457Z,6.28
2023-03-29T14:18:21.822Z,5.85
2023-03-29T14:20:50.705Z,7.35
2023-03-29T14:23:20.213Z,5.85
2023-03-29T14:25:47.333Z,5.90
2023-03-29T14:28:24.133Z,5.50
2023-03-29T14:30:52.814Z,5.95
2023-03-29T14:33:29.110Z,5.65
2023-03-29T14:35:56.408Z,4.82
2023-03-29T14:38:23.527Z,6.03
2023-03-29T14:40:50.936Z,5.65
2023-03-29T14:43:19.436Z,6.28
2023-03-29T14:45:46.648Z,5.65
2023-03-29T14:48:13.592Z,6.28
2023-03-29T14:50:41.112Z,6.57
2023-03-29T14:53:08.422Z,6.15
2023-03-29T14:55:36.705Z,6.28
2023-03-29T14:58:04.377Z,7.28
2023-03-29T15:00:38.873Z,7.20
2023-03-29T15:03:13.146Z,7.55
2023-03-29T15:05:41.446Z,6.80
2023-03-29T15:08:50.842Z,7.03
2023-03-29T15:11:31.712Z,8.23
2023-03-29T15:14:04.001Z,6.47
2023-03-29T15:16:31.359Z,7.72
2023-03-29T15:18:58.333Z,7.22
2023-03-29T15:21:26.214Z,7.60
2023-03-29T15:23:57.311Z,9.07
2023-03-29T15:26:30.987Z,8.95
2023-03-29T15:29:17.049Z,8.73
2023-03-29T15:31:54.099Z,9.15
2023-03-29T15:34:28.563Z,7.95
2023-03-29T15:36:57.829Z,8.32
2023-03-29T15:39:56.778Z,7.70
2023-03-29T15:42:54.594Z,7.82
2023-03-29T15:45:53.705Z,8.02
2023-03-29T15:48:23.565Z,8.13
2023-03-29T15:51:42.860Z,7.32
2023-03-29T15:54:10.051Z,8.18
2023-03-29T15:56:43.535Z,7.18
2023-03-29T15:59:11.757Z,8.32
2023-03-29T16:01:42.550Z,8.73
2023-03-29T16:04:19.715Z,9.15
2023-03-29T16:06:48.856Z,9.93
2023-03-29T16:09:17.042Z,9.30
2023-03-29T16:11:45.146Z,8.68
2023-03-29T16:14:27.096Z,9.05
2023-03-29T16:17:00.391Z,10.05
2023-03-29T16:19:27.966Z,10.95
2023-03-29T16:21:55.786Z,11.50
2023-03-29T16:24:24.701Z,10.63
2023-03-29T16:27:47.756Z,11.25
2023-03-29T16:30:15.109Z,9.35
2023-03-29T16:32:42.116Z,10.27
2023-03-29T16:35:29.581Z,10.18
2023-03-29T16:37:56.473Z,10.02
2023-03-29T16:40:24.011Z,11.48
2023-03-29T16:42:51.458Z,11.32
2023-03-29T16:45:18.966Z,11.48
2023-03-29T16:47:45.921Z,12.57
2023-03-29T16:50:14.397Z,13.73
2023-03-29T16:52:41.685Z,14.32
2023-03-29T16:55:12.162Z,14.55
2023-03-29T16:57:40.141Z,13.60
2023-03-29T17:00:08.779Z,14.55
2023-03-29T17:02:35.669Z,14.88
2023-03-29T17:05:03.269Z,15.90
2023-03-29T17:07:30.282Z,17.17
2023-03-29T17:09:57.396Z,16.38
2023-03-29T17:12:24.161Z,15.77
2023-03-29T17:14:51.261Z,15.07
2023-03-29T17:17:18.747Z,14.63
2023-03-29T17:19:45.916Z,16.10
2023-03-29T17:22:12.692Z,14.38
2023-03-29T17:24:39.808Z,15.90
2023-03-29T17:27:06.700Z,14.93
2023-03-29T17:29:33.847Z,13.77
2023-03-29T17:32:00.998Z,13.75
2023-03-29T17:34:29.136Z,13.27
2023-03-29T17:36:56.312Z,13.82
2023-03-29T17:39:25.172Z,13.18
2023-03-29T17:41:52.553Z,14.57
2023-03-29T17:44:19.922Z,15.00
2023-03-29T17:46:46.731Z,13.13
2023-03-29T17:49:14.794Z,13.75
2023-03-29T17:51:41.664Z,15.57
2023-03-29T17:54:08.832Z,17.75
2023-03-29T17:56:35.789Z,17.23
2023-03-29T17:59:02.944Z,16.83
2023-03-29T18:01:29.736Z,15.27
2023-03-29T18:03:56.978Z,16.20
2023-03-29T18:06:23.827Z,17.10
2023-03-29T18:08:53.138Z,17.05
2023-03-29T18:11:22.949Z,15.38
2023-03-29T18:13:51.083Z,15.32
2023-03-29T18:16:18.624Z,16.52
2023-03-29T18:18:46.394Z,16.55
2023-03-29T18:21:14.302Z,16.10
2023-03-29T18:23:47.251Z,15.77
2023-03-29T18:26:15.012Z,15.45
2023-03-29T18:28:42.363Z,16.55
2023-03-29T18:31:09.402Z,16.80
2023-03-29T18:33:36.649Z,15.85
2023-03-29T18:36:10.685Z,16.65
2023-03-29T18:38:40.489Z,18.55
2023-03-29T18:41:08.645Z,19.20
2023-03-29T18:43:36.027Z,19.58
2023-03-29T18:46:03.258Z,17.23
2023-03-29T18:48:31.166Z,18.95
2023-03-29T18:50:58.237Z,18.42
2023-03-29T18:53:26.351Z,20.00
2023-03-29T18:55:53.149Z,19.98
2023-03-29T18:58:23.996Z,21.08
2023-03-29T19:00:51.618Z,33.53
2023-03-29T19:03:18.981Z,54.20
2023-03-29T19:05:46.346Z,76.30
2023-03-29T19:08:13.581Z,81.07
2023-03-29T19:10:40.750Z,87.13
2023-03-29T19:13:08.070Z,82.88
2023-03-29T19:15:35.168Z,81.43
2023-03-29T19:18:02.751Z,80.57
2023-03-29T19:20:30.370Z,78.15
2023-03-29T19:22:57.791Z,73.68
2023-03-29T19:25:24.652Z,76.13
2023-03-29T19:27:51.827Z,73.18
2023-03-29T19:30:20.213Z,77.10
2023-03-29T19:32:48.302Z,69.60
2023-03-29T19:35:15.804Z,65.50
2023-03-29T19:37:42.968Z,66.75
2023-03-29T19:40:11.277Z,57.35
2023-03-29T19:42:38.655Z,58.75
2023-03-29T19:45:06.670Z,61.97
2023-03-29T19:47:34.279Z,57.92
2023-03-29T19:50:01.380Z,56.95
2023-03-29T19:52:28.719Z,52.88
2023-03-29T19:54:56.449Z,51.70
2023-03-29T19:57:23.993Z,48.50
2023-03-29T19:59:53.087Z,47.78
2023-03-29T20:02:20.266Z,47.30
2023-03-29T20:04:47.060Z,49.05
2023-03-29T20:07:14.417Z,44.75
2023-03-29T20:09:44.621Z,43.83
2023-03-29T20:12:12.560Z,43.17
2023-03-29T20:14:40.291Z,40.63
2023-03-29T20:17:07.777Z,39.78
2023-03-29T20:19:36.815Z,38.90
2023-03-29T20:22:04.223Z,38.28
2023-03-29T20:24:32.591Z,34.78
2023-03-29T20:26:59.835Z,33.83
2023-03-29T20:29:27.727Z,34.08
2023-03-29T20:31:54.903Z,32.95
2023-03-29T20:34:22.407Z,32.53
2023-03-29T20:36:49.691Z,28.58
2023-03-29T20:39:18.811Z,30.50
2023-03-29T20:41:50.694Z,28.58
2023-03-29T20:44:17.652Z,29.08
2023-03-29T20:47:02.202Z,28.45
2023-03-29T20:49:38.087Z,25.88
2023-03-29T20:52:15.946Z,26.30
2023-03-29T20:54:43.395Z,25.42
2023-03-29T20:57:14.061Z,25.92
2023-03-29T20:59:41.664Z,27.17
2023-03-29T21:02:11.976Z,24.80
2023-03-29T21:04:38.821Z,27.08
2023-03-29T21:07:06.493Z,24.85
2023-03-29T21:09:35.517Z,27.98
2023-03-29T21:12:02.805Z,25.00
2023-03-29T21:14:30.467Z,24.92
2023-03-29T21:16:57.841Z,23.75
2023-03-29T21:19:24.786Z,20.98
2023-03-29T21:21:52.318Z,22.30
2023-03-29T21:24:19.236Z,21.00
2023-03-29T21:26:46.617Z,20.02
2023-03-29T21:29:13.714Z,20.50
2023-03-29T21:31:41.167Z,19.05
2023-03-29T21:34:08.211Z,19.33
2023-03-29T21:36:35.790Z,17.85
2023-03-29T21:39:02.755Z,16.05
2023-03-29T21:41:29.996Z,16.42
2023-03-29T21:43:56.936Z,17.45
2023-03-29T21:46:25.873Z,14.73
2023-03-29T21:48:52.852Z,15.18
2023-03-29T21:51:20.130Z,13.23
2023-03-29T21:53:47.342Z,12.13
2023-03-29T21:56:14.989Z,11.98
2023-03-29T21:58:42.007Z,11.60
2023-03-29T22:01:10.525Z,11.20
2023-03-29T22:03:37.980Z,9.40
2023-03-29T22:06:09.978Z,9.88
2023-03-29T22:08:38.992Z,8.80
2023-03-29T22:11:09.425Z,7.85
2023-03-29T22:13:36.777Z,7.60
2023-03-29T22:16:04.403Z,5.85
2023-03-29T22:18:42.485Z,6.88
2023-03-29T22:21:14.596Z,6.75
2023-03-29T22:23:42.515Z,6.13
2023-03-29T22:26:11.151Z,6.10
2023-03-29T22:28:38.254Z,6.07
2023-03-29T22:31:07.294Z,6.03
2023-03-29T22:33:34.420Z,5.32
2023-03-29T22:36:02.105Z,5.90
2023-03-29T22:38:29.273Z,4.72
2023-03-29T22:40:56.499Z,5.70
2023-03-29T22:43:23.456Z,6.35
2023-03-29T22:45:50.777Z,7.13
2023-03-29T22:48:17.801Z,6.00
2023-03-29T22:50:48.155Z,6.45
2023-03-29T22:53:15.245Z,5.30
2023-03-29T22:55:43.920Z,5.80
2023-03-29T22:58:10.834Z,6.20
2023-03-29T23:00:38.031Z,6.30
2023-03-29T23:03:04.979Z,5.15
2023-03-29T23:05:32.536Z,5.18
2023-03-29T23:07:59.455Z,5.85
2023-03-29T23:10:29.013Z,5.22
2023-03-29T23:13:12.869Z,5.68
2023-03-29T23:15:45.719Z,4.45
2023-03-29T23:18:15.465Z,4.55
2023-03-29T23:20:42.764Z,4.53
2023-03-29T23:23:09.648Z,4.72
2023-03-29T23:25:36.943Z,5.30
2023-03-29T23:28:03.925Z,4.20
2023-03-29T23:30:31.665Z,4.25
2023-03-29T23:33:00.285Z,4.05
2023-03-29T23:35:27.551Z,4.78
2023-03-29T23:37:54.515Z,4.13
2023-03-29T23:40:21.996Z,4.10
2023-03-29T23:42:48.972Z,3.55
2023-03-29T23:45:18.327Z,3.75
2023-03-29T23:47:45.569Z,4.32
2023-03-29T23:50:13.742Z,3.70
2023-03-29T23:52:41.231Z,3.38
2023-03-29T23:55:10.063Z,4.20
2023-03-29T23:57:37.195Z,3.38
